createdAt,value
2022-08-02T00:00:02.242Z,11.4
2022-08-02T00:15:00.959Z,11.4
2022-08-02T00:25:00.995Z,11.3
2022-08-02T00:30:01.024Z,11.2
2022-08-02T00:35:00.911Z,11.1
2022-08-02T00:45:01.016Z,11.1
2022-08-02T00:50:01.036Z,11.0
2022-08-02T01:00:02.153Z,10.9
2022-08-02T01:05:00.909Z,10.8
2022-08-02T01:10:00.974Z,10.7
2022-08-02T01:15:00.905Z,10.6
2022-08-02T01:20:01.133Z,10.5
2022-08-02T01:25:00.956Z,10.4
2022-08-02T01:30:01.044Z,10.4
2022-08-02T01:35:00.915Z,10.3
2022-08-02T01:45:01.029Z,10.3
2022-08-02T01:50:01.025Z,10.2
2022-08-02T02:00:02.464Z,10.2
2022-08-02T02:05:00.944Z,10.1
2022-08-02T02:15:01.064Z,10.1
2022-08-02T02:30:00.722Z,10.0
2022-08-02T02:40:00.731Z,9.9
2022-08-02T02:45:00.730Z,9.9
2022-08-02T02:50:00.736Z,9.8
2022-08-02T03:00:00.733Z,9.7
2022-08-02T03:15:00.740Z,9.7
2022-08-02T03:30:00.741Z,9.7
2022-08-02T03:40:00.747Z,9.8
2022-08-02T03:45:03.818Z,9.8
2022-08-02T04:00:00.749Z,9.8
2022-08-02T04:15:00.970Z,9.8
2022-08-02T04:30:00.972Z,9.7
2022-08-02T04:40:00.992Z,9.8
2022-08-02T04:45:00.987Z,9.8
2022-08-02T04:50:00.971Z,10.0
2022-08-02T04:55:01.049Z,10.1
2022-08-02T05:00:02.141Z,10.2
2022-08-02T05:05:00.981Z,10.3
2022-08-02T05:10:01.104Z,10.4
2022-08-02T05:15:00.995Z,10.5
2022-08-02T05:20:01.001Z,10.6
2022-08-02T05:25:07.796Z,10.7
2022-08-02T05:30:00.980Z,10.9
2022-08-02T05:35:01.019Z,11.1
2022-08-02T05:40:01.298Z,11.5
2022-08-02T05:45:01.054Z,11.8
2022-08-02T05:50:01.012Z,12.3
2022-08-02T05:55:00.994Z,12.6
2022-08-02T06:00:02.886Z,13.1
2022-08-02T06:05:15.803Z,13.4
2022-08-02T06:10:00.987Z,13.7
2022-08-02T06:15:01.011Z,13.9
2022-08-02T06:20:01.130Z,14.1
2022-08-02T06:25:01.005Z,14.3
2022-08-02T06:30:01.003Z,14.5
2022-08-02T06:35:01.135Z,14.7
2022-08-02T06:40:01.183Z,14.8
2022-08-02T06:45:01.003Z,14.9
2022-08-02T06:50:01.571Z,15.1
2022-08-02T06:55:01.093Z,15.2
2022-08-02T07:00:02.605Z,15.3
2022-08-02T07:05:01.064Z,15.5
2022-08-02T07:10:01.930Z,15.7
2022-08-02T07:15:01.020Z,15.9
2022-08-02T07:20:01.145Z,16.2
2022-08-02T07:25:01.011Z,16.3
2022-08-02T07:30:01.145Z,16.5
2022-08-02T07:35:01.510Z,16.7
2022-08-02T07:40:01.116Z,16.8
2022-08-02T07:45:01.023Z,16.9
2022-08-02T07:50:01.207Z,17.1
2022-08-02T07:55:01.300Z,17.2
2022-08-02T08:00:02.056Z,17.4
2022-08-02T08:05:15.910Z,17.6
2022-08-02T08:10:00.957Z,17.8
2022-08-02T08:15:01.028Z,17.9
2022-08-02T08:20:01.162Z,18.0
2022-08-02T08:25:01.036Z,18.1
2022-08-02T08:30:01.171Z,18.3
2022-08-02T08:35:01.069Z,18.4
2022-08-02T08:40:01.161Z,18.6
2022-08-02T08:45:01.168Z,18.7
2022-08-02T08:50:01.107Z,18.9
2022-08-02T09:00:02.017Z,19.0
2022-08-02T09:05:01.051Z,19.1
2022-08-02T09:10:01.219Z,19.2
2022-08-02T09:15:01.053Z,19.3
2022-08-02T09:20:01.114Z,19.5
2022-08-02T09:25:01.058Z,19.6
2022-08-02T09:30:09.795Z,19.8
2022-08-02T09:35:01.064Z,20.0
2022-08-02T09:40:01.211Z,20.2
2022-08-02T09:45:01.062Z,20.4
2022-08-02T09:50:01.183Z,20.7
2022-08-02T09:55:01.192Z,20.8
2022-08-02T10:00:03.043Z,21.0
2022-08-02T10:05:15.874Z,21.1
2022-08-02T10:10:00.988Z,21.3
2022-08-02T10:15:01.073Z,21.3
2022-08-02T10:20:04.440Z,21.4
2022-08-02T10:30:01.188Z,21.5
2022-08-02T10:35:18.129Z,21.6
2022-08-02T10:40:01.202Z,21.7
2022-08-02T10:45:01.053Z,21.8
2022-08-02T10:50:01.251Z,21.9
2022-08-02T10:55:01.091Z,22.0
2022-08-02T11:00:02.371Z,22.1
2022-08-02T11:05:15.884Z,22.2
2022-08-02T11:10:01.013Z,22.4
2022-08-02T11:15:01.092Z,22.5
2022-08-02T11:20:01.259Z,22.7
2022-08-02T11:25:08.665Z,22.8
2022-08-02T11:30:01.180Z,23.0
2022-08-02T11:35:01.085Z,23.1
2022-08-02T11:40:01.201Z,23.2
2022-08-02T11:45:01.090Z,23.2
2022-08-02T11:50:01.216Z,23.3
2022-08-02T11:55:01.086Z,23.4
2022-08-02T12:00:02.442Z,23.5
2022-08-02T12:05:01.088Z,23.6
2022-08-02T12:10:01.156Z,23.8
2022-08-02T12:15:01.106Z,23.9
2022-08-02T12:20:01.222Z,24.0
2022-08-02T12:25:01.095Z,24.1
2022-08-02T12:30:01.232Z,24.3
2022-08-02T12:35:01.186Z,24.4
2022-08-02T12:45:01.206Z,24.4
2022-08-02T12:55:01.168Z,24.2
2022-08-02T13:00:03.118Z,24.0
2022-08-02T13:05:01.105Z,23.8
2022-08-02T13:10:02.921Z,23.5
2022-08-02T13:15:01.171Z,23.3
2022-08-02T13:25:01.310Z,23.5
2022-08-02T13:30:01.298Z,23.8
2022-08-02T13:35:01.120Z,24.1
2022-08-02T13:40:20.352Z,24.5
2022-08-02T13:45:01.205Z,24.6
2022-08-02T13:50:01.342Z,24.8
2022-08-02T13:55:01.127Z,24.9
2022-08-02T14:00:02.993Z,24.8
2022-08-02T14:10:01.273Z,24.7
2022-08-02T14:15:01.580Z,24.6
2022-08-02T14:20:01.202Z,24.4
2022-08-02T14:25:08.868Z,24.2
2022-08-02T14:30:01.207Z,24.1
2022-08-02T14:35:01.269Z,24.0
2022-08-02T14:40:01.418Z,23.8
2022-08-02T14:45:01.171Z,23.6
2022-08-02T14:50:01.236Z,23.4
2022-08-02T14:55:01.211Z,23.2
2022-08-02T15:00:02.611Z,22.9
2022-08-02T15:05:01.143Z,22.8
2022-08-02T15:10:01.262Z,22.7
2022-08-02T15:15:01.332Z,22.6
2022-08-02T15:20:04.390Z,22.5
2022-08-02T15:25:01.144Z,22.4
2022-08-02T15:30:01.176Z,22.2
2022-08-02T15:35:01.144Z,22.1
2022-08-02T15:40:01.139Z,21.8
2022-08-02T15:45:01.195Z,21.6
2022-08-02T15:50:01.138Z,21.3
2022-08-02T15:55:06.810Z,21.1
2022-08-02T16:00:02.305Z,20.8
2022-08-02T16:05:01.143Z,20.7
2022-08-02T16:10:01.174Z,20.5
2022-08-02T16:15:01.141Z,20.5
2022-08-02T16:20:01.081Z,20.4
2022-08-02T16:30:01.147Z,20.4
2022-08-02T16:35:09.135Z,20.5
2022-08-02T16:45:01.193Z,20.5
2022-08-02T16:50:06.177Z,20.6
2022-08-02T17:00:02.254Z,20.6
2022-08-02T17:05:01.227Z,20.5
2022-08-02T17:15:08.877Z,20.5
2022-08-02T17:20:01.260Z,20.4
2022-08-02T17:30:01.179Z,20.4
2022-08-02T17:35:03.833Z,20.3
2022-08-02T17:45:06.798Z,20.3
2022-08-02T18:00:03.772Z,20.2
2022-08-02T18:10:01.167Z,20.1
2022-08-02T18:15:00.991Z,20.1
2022-08-02T18:20:06.029Z,20.0
2022-08-02T18:25:00.997Z,19.9
2022-08-02T18:30:04.272Z,19.8
2022-08-02T18:35:00.990Z,19.7
2022-08-02T18:40:01.007Z,19.5
2022-08-02T18:45:00.992Z,19.4
2022-08-02T18:50:01.016Z,19.3
2022-08-02T18:55:00.998Z,19.2
2022-08-02T19:00:01.149Z,19.2
2022-08-02T19:15:01.012Z,19.2
2022-08-02T19:30:02.167Z,19.3
2022-08-02T19:45:00.993Z,19.3
2022-08-02T20:00:01.021Z,19.3
2022-08-02T20:10:01.070Z,19.2
2022-08-02T20:15:01.019Z,19.2
2022-08-02T20:30:01.021Z,19.2
2022-08-02T20:45:01.022Z,19.2
2022-08-02T21:00:02.208Z,19.2
2022-08-02T21:05:01.244Z,19.1
2022-08-02T21:15:01.306Z,19.1
2022-08-02T21:30:01.293Z,19.0
2022-08-02T21:45:01.281Z,18.9
2022-08-02T21:55:01.202Z,18.8
2022-08-02T22:00:02.450Z,18.7
2022-08-02T22:10:01.268Z,18.6
2022-08-02T22:15:02.039Z,18.5
2022-08-02T22:20:01.264Z,18.4
2022-08-02T22:30:01.279Z,18.3
2022-08-02T22:35:01.283Z,18.2
2022-08-02T22:40:06.161Z,18.1
2022-08-02T22:45:01.318Z,18.0
2022-08-02T22:50:01.351Z,17.9
2022-08-02T22:55:01.285Z,17.8
2022-08-02T23:00:02.360Z,17.7
2022-08-02T23:05:01.280Z,17.6
2022-08-02T23:10:01.415Z,17.5
2022-08-02T23:15:01.292Z,17.5
2022-08-02T23:20:01.425Z,17.4
2022-08-02T23:25:07.264Z,17.3
2022-08-02T23:30:01.376Z,17.3
2022-08-02T23:35:01.304Z,17.2
2022-08-02T23:40:01.373Z,17.1
2022-08-02T23:45:01.320Z,17.0
2022-08-02T23:55:01.608Z,16.9
